If you wish to contribute or participate in the discussions about articles you are invited to join SKYbrary as a registered user

 Actions

Moises Benzaquen Rengifo Airport

From SKYbrary Wiki

SPMS
Airport
ICAO: SPMS – IATA: YMS
Summary
Name Moises Benzaquen Rengifo Airport
Region South America and Caribbean
Territory Peru PE.gif
Location Yurimaguas, Loreto
Serving Yurimaguas
Elevation 178.918 m
587 ft
587 ft178.918 m
Type medium airport
Coordinates 5° 53' 37.58" S, 76° 7' 5.56" W
Runways
Designator Length Width Surface ROPS
9/27 1802 m5,912.073 ft
30 m98.425 ft
ASP /


METAR
Observation SPMS 141300Z 00000KT 9999 FEW010 BKN080 25/24 Q1014 RMK BIRD HAZARD RWY 09/27 PP000
Station Yurimaguas
Date/Time 14 October 2019 13:00:00
Wind direction
Wind speed 00 kts
Lowest cloud amount few clouds
Temperature 25°C
Dew point 24°C
Humidity 94%
QNH 1014 hPa
Weather condition n/a

Airport serving Yurimaguas, a town in Yurimaguas district, Alto Amazonas province, Loreto region, Peru.

Climatology

Equatorial climate (Köppen climate classification Af).

Maps

Terrain

Loading map...

Airport Layout

Loading map...


Accidents & Serious Incidents at or in vicinity of SPMS

None on SKYbrary